Pleasantville, Pennsylvania
Current Conditions -  °F | °C
As of 4:15 AM on Friday 19 Dec 2014 (Local Time) from KFKL Reporting Station
Overcast Overcast  
Wind Chill: 22°   Ceiling: 500
Heat Index: 28°   Visibility: 5mi
Dew Point: 25°   Wind: 6mph
Humidity: 86%   Direction: 270°W
Pressure: 30.1"   Gusts: NA
Location:  41.59°N, 79.58°W
Report Text: KFKL 190915Z AUTO 27005KT 5SM BKN005 OVC013 M02/M04 A3010 RMK AO1
Loading
Personal Weather Stations






























Interactive Weather Map New forecast layout! Learn more

10-Day Weather Forecast

Advertisements
Track Severe Weather on mobile